sensor_id;sensor_type;location;lat;lon;timestamp;P1;durP1;ratioP1;P2;durP2;ratioP2
18695;SDS011;22617;43.690;27.956;2024-01-27T00:02:21;16.07;;;7.93;;
18695;SDS011;22617;43.690;27.956;2024-01-27T00:07:25;16.57;;;7.90;;
18695;SDS011;22617;43.690;27.956;2024-01-27T00:12:31;16.17;;;7.97;;
18695;SDS011;22617;43.690;27.956;2024-01-27T00:17:34;15.27;;;8.23;;
18695;SDS011;22617;43.690;27.956;2024-01-27T00:22:38;14.97;;;7.67;;
18695;SDS011;22617;43.690;27.956;2024-01-27T00:27:43;15.33;;;7.30;;
18695;SDS011;22617;43.690;27.956;2024-01-27T00:32:46;15.60;;;8.03;;
18695;SDS011;22617;43.690;27.956;2024-01-27T00:37:50;18.60;;;8.40;;
18695;SDS011;22617;43.690;27.956;2024-01-27T00:42:55;14.73;;;7.80;;
18695;SDS011;22617;43.690;27.956;2024-01-27T00:47:58;16.23;;;7.87;;
18695;SDS011;22617;43.690;27.956;2024-01-27T00:53:02;25.30;;;9.00;;
18695;SDS011;22617;43.690;27.956;2024-01-27T00:58:08;16.40;;;7.53;;
18695;SDS011;22617;43.690;27.956;2024-01-27T01:03:11;17.77;;;8.23;;
18695;SDS011;22617;43.690;27.956;2024-01-27T01:08:14;16.70;;;7.57;;
18695;SDS011;22617;43.690;27.956;2024-01-27T01:13:19;18.73;;;7.83;;
18695;SDS011;22617;43.690;27.956;2024-01-27T01:18:23;15.60;;;6.83;;
18695;SDS011;22617;43.690;27.956;2024-01-27T01:23:27;11.63;;;6.27;;
18695;SDS011;22617;43.690;27.956;2024-01-27T01:28:31;13.47;;;6.93;;
18695;SDS011;22617;43.690;27.956;2024-01-27T01:33:35;13.17;;;6.63;;
18695;SDS011;22617;43.690;27.956;2024-01-27T01:38:39;15.63;;;7.23;;
18695;SDS011;22617;43.690;27.956;2024-01-27T01:43:43;14.63;;;6.90;;
18695;SDS011;22617;43.690;27.956;2024-01-27T01:48:47;14.47;;;6.87;;
18695;SDS011;22617;43.690;27.956;2024-01-27T01:53:51;15.07;;;6.87;;
18695;SDS011;22617;43.690;27.956;2024-01-27T01:58:59;13.53;;;7.03;;
18695;SDS011;22617;43.690;27.956;2024-01-27T02:04:04;14.77;;;8.13;;
18695;SDS011;22617;43.690;27.956;2024-01-27T02:09:07;13.57;;;6.87;;
18695;SDS011;22617;43.690;27.956;2024-01-27T02:14:13;14.57;;;7.00;;
18695;SDS011;22617;43.690;27.956;2024-01-27T02:19:17;18.00;;;6.87;;
18695;SDS011;22617;43.690;27.956;2024-01-27T02:24:21;12.77;;;6.83;;
18695;SDS011;22617;43.690;27.956;2024-01-27T02:29:25;15.17;;;7.77;;
18695;SDS011;22617;43.690;27.956;2024-01-27T02:34:29;13.90;;;6.67;;
18695;SDS011;22617;43.690;27.956;2024-01-27T02:39:34;14.33;;;7.57;;
18695;SDS011;22617;43.690;27.956;2024-01-27T02:44:38;17.63;;;7.67;;
18695;SDS011;22617;43.690;27.956;2024-01-27T02:49:41;13.50;;;7.30;;
18695;SDS011;22617;43.690;27.956;2024-01-27T02:54:47;16.23;;;7.83;;
18695;SDS011;22617;43.690;27.956;2024-01-27T02:59:51;12.30;;;6.80;;
18695;SDS011;22617;43.690;27.956;2024-01-27T03:04:55;18.87;;;7.47;;
18695;SDS011;22617;43.690;27.956;2024-01-27T03:10:00;16.23;;;7.90;;
18695;SDS011;22617;43.690;27.956;2024-01-27T03:15:05;14.23;;;6.47;;
18695;SDS011;22617;43.690;27.956;2024-01-27T03:20:10;19.13;;;7.60;;
18695;SDS011;22617;43.690;27.956;2024-01-27T03:25:15;15.57;;;7.10;;
18695;SDS011;22617;43.690;27.956;2024-01-27T03:30:19;19.37;;;7.93;;
18695;SDS011;22617;43.690;27.956;2024-01-27T03:35:22;17.53;;;7.97;;
18695;SDS011;22617;43.690;27.956;2024-01-27T03:40:27;20.83;;;8.17;;
18695;SDS011;22617;43.690;27.956;2024-01-27T03:45:31;15.73;;;7.97;;
18695;SDS011;22617;43.690;27.956;2024-01-27T03:50:34;17.60;;;7.87;;
18695;SDS011;22617;43.690;27.956;2024-01-27T03:55:39;20.63;;;8.10;;
18695;SDS011;22617;43.690;27.956;2024-01-27T04:00:43;20.50;;;8.53;;
18695;SDS011;22617;43.690;27.956;2024-01-27T04:05:47;17.60;;;7.67;;
18695;SDS011;22617;43.690;27.956;2024-01-27T04:10:52;15.77;;;7.37;;
18695;SDS011;22617;43.690;27.956;2024-01-27T04:15:55;17.33;;;8.00;;
18695;SDS011;22617;43.690;27.956;2024-01-27T04:21:01;18.00;;;7.93;;
18695;SDS011;22617;43.690;27.956;2024-01-27T04:26:06;23.33;;;8.90;;
18695;SDS011;22617;43.690;27.956;2024-01-27T04:31:11;16.60;;;8.10;;
18695;SDS011;22617;43.690;27.956;2024-01-27T04:36:14;22.30;;;8.50;;
18695;SDS011;22617;43.690;27.956;2024-01-27T04:41:28;20.80;;;8.43;;
18695;SDS011;22617;43.690;27.956;2024-01-27T04:46:32;20.17;;;7.87;;
18695;SDS011;22617;43.690;27.956;2024-01-27T04:51:35;18.63;;;8.60;;
18695;SDS011;22617;43.690;27.956;2024-01-27T04:56:40;19.57;;;8.50;;
18695;SDS011;22617;43.690;27.956;2024-01-27T05:01:44;19.83;;;8.80;;
18695;SDS011;22617;43.690;27.956;2024-01-27T05:06:48;17.50;;;7.90;;
18695;SDS011;22617;43.690;27.956;2024-01-27T05:11:53;20.87;;;8.83;;
18695;SDS011;22617;43.690;27.956;2024-01-27T05:16:56;16.77;;;8.47;;
18695;SDS011;22617;43.690;27.956;2024-01-27T05:22:00;18.37;;;7.97;;
18695;SDS011;22617;43.690;27.956;2024-01-27T05:27:05;20.97;;;9.23;;
18695;SDS011;22617;43.690;27.956;2024-01-27T05:32:08;19.10;;;8.93;;
18695;SDS011;22617;43.690;27.956;2024-01-27T05:37:12;17.43;;;8.83;;
18695;SDS011;22617;43.690;27.956;2024-01-27T05:42:17;16.30;;;8.70;;
18695;SDS011;22617;43.690;27.956;2024-01-27T05:47:20;19.27;;;8.37;;
18695;SDS011;22617;43.690;27.956;2024-01-27T05:52:24;20.13;;;9.07;;
18695;SDS011;22617;43.690;27.956;2024-01-27T05:57:29;22.13;;;8.77;;
18695;SDS011;22617;43.690;27.956;2024-01-27T06:02:32;18.73;;;9.23;;
18695;SDS011;22617;43.690;27.956;2024-01-27T06:07:37;17.80;;;8.17;;
18695;SDS011;22617;43.690;27.956;2024-01-27T06:12:42;18.00;;;8.90;;
18695;SDS011;22617;43.690;27.956;2024-01-27T06:17:46;22.33;;;8.63;;
18695;SDS011;22617;43.690;27.956;2024-01-27T06:22:50;19.67;;;8.97;;
18695;SDS011;22617;43.690;27.956;2024-01-27T06:27:56;23.27;;;9.63;;
18695;SDS011;22617;43.690;27.956;2024-01-27T06:32:59;24.70;;;10.73;;
18695;SDS011;22617;43.690;27.956;2024-01-27T06:38:03;25.93;;;9.77;;
18695;SDS011;22617;43.690;27.956;2024-01-27T06:43:08;23.30;;;9.30;;
18695;SDS011;22617;43.690;27.956;2024-01-27T06:48:12;20.33;;;9.50;;
18695;SDS011;22617;43.690;27.956;2024-01-27T06:53:16;21.87;;;10.10;;
18695;SDS011;22617;43.690;27.956;2024-01-27T06:58:22;23.10;;;10.70;;
18695;SDS011;22617;43.690;27.956;2024-01-27T07:03:26;25.33;;;12.57;;
18695;SDS011;22617;43.690;27.956;2024-01-27T07:08:30;23.57;;;11.77;;
18695;SDS011;22617;43.690;27.956;2024-01-27T07:13:40;24.37;;;10.80;;
18695;SDS011;22617;43.690;27.956;2024-01-27T07:18:44;17.77;;;8.97;;
18695;SDS011;22617;43.690;27.956;2024-01-27T07:23:48;22.00;;;8.57;;
18695;SDS011;22617;43.690;27.956;2024-01-27T07:28:53;18.70;;;8.50;;
18695;SDS011;22617;43.690;27.956;2024-01-27T07:33:56;22.63;;;7.73;;
18695;SDS011;22617;43.690;27.956;2024-01-27T07:39:00;12.77;;;7.23;;
18695;SDS011;22617;43.690;27.956;2024-01-27T07:44:08;16.87;;;7.40;;
18695;SDS011;22617;43.690;27.956;2024-01-27T07:49:12;16.50;;;7.00;;
18695;SDS011;22617;43.690;27.956;2024-01-27T07:54:17;17.07;;;6.97;;
18695;SDS011;22617;43.690;27.956;2024-01-27T07:59:22;17.37;;;6.60;;
18695;SDS011;22617;43.690;27.956;2024-01-27T08:04:25;12.53;;;6.83;;
18695;SDS011;22617;43.690;27.956;2024-01-27T08:09:29;14.77;;;6.50;;
18695;SDS011;22617;43.690;27.956;2024-01-27T08:14:34;11.47;;;6.43;;
18695;SDS011;22617;43.690;27.956;2024-01-27T08:19:37;12.90;;;7.00;;
18695;SDS011;22617;43.690;27.956;2024-01-27T08:24:41;10.40;;;5.70;;
18695;SDS011;22617;43.690;27.956;2024-01-27T08:29:46;11.27;;;6.17;;
18695;SDS011;22617;43.690;27.956;2024-01-27T08:34:49;11.70;;;6.10;;
18695;SDS011;22617;43.690;27.956;2024-01-27T08:39:53;12.57;;;6.33;;
18695;SDS011;22617;43.690;27.956;2024-01-27T08:44:58;13.77;;;5.67;;
18695;SDS011;22617;43.690;27.956;2024-01-27T08:50:03;12.33;;;5.70;;
18695;SDS011;22617;43.690;27.956;2024-01-27T08:55:07;11.73;;;5.70;;
18695;SDS011;22617;43.690;27.956;2024-01-27T09:00:13;14.93;;;5.77;;
18695;SDS011;22617;43.690;27.956;2024-01-27T09:05:18;13.10;;;5.33;;
18695;SDS011;22617;43.690;27.956;2024-01-27T09:10:22;15.40;;;5.63;;
18695;SDS011;22617;43.690;27.956;2024-01-27T09:15:27;13.03;;;5.47;;
18695;SDS011;22617;43.690;27.956;2024-01-27T09:20:32;17.87;;;6.17;;
18695;SDS011;22617;43.690;27.956;2024-01-27T09:25:35;12.53;;;5.90;;
18695;SDS011;22617;43.690;27.956;2024-01-27T09:30:40;9.73;;;5.30;;
18695;SDS011;22617;43.690;27.956;2024-01-27T09:35:44;13.70;;;5.60;;
18695;SDS011;22617;43.690;27.956;2024-01-27T09:40:47;13.80;;;5.90;;
18695;SDS011;22617;43.690;27.956;2024-01-27T09:45:52;9.07;;;4.93;;
18695;SDS011;22617;43.690;27.956;2024-01-27T09:51:01;11.40;;;5.20;;
18695;SDS011;22617;43.690;27.956;2024-01-27T09:56:06;10.30;;;5.17;;
18695;SDS011;22617;43.690;27.956;2024-01-27T10:01:11;14.27;;;5.10;;
18695;SDS011;22617;43.690;27.956;2024-01-27T10:06:15;16.00;;;5.70;;
18695;SDS011;22617;43.690;27.956;2024-01-27T10:11:20;11.87;;;5.90;;
18695;SDS011;22617;43.690;27.956;2024-01-27T10:16:25;14.03;;;5.30;;
18695;SDS011;22617;43.690;27.956;2024-01-27T10:21:29;12.40;;;5.70;;
18695;SDS011;22617;43.690;27.956;2024-01-27T10:26:33;14.50;;;5.93;;
18695;SDS011;22617;43.690;27.956;2024-01-27T10:31:38;15.73;;;6.30;;
18695;SDS011;22617;43.690;27.956;2024-01-27T10:36:42;14.40;;;5.90;;
18695;SDS011;22617;43.690;27.956;2024-01-27T10:41:47;11.93;;;5.77;;
18695;SDS011;22617;43.690;27.956;2024-01-27T10:46:54;14.50;;;5.97;;
18695;SDS011;22617;43.690;27.956;2024-01-27T10:52:03;15.43;;;5.97;;
18695;SDS011;22617;43.690;27.956;2024-01-27T10:57:14;14.67;;;5.27;;
18695;SDS011;22617;43.690;27.956;2024-01-27T11:02:21;14.00;;;5.70;;
18695;SDS011;22617;43.690;27.956;2024-01-27T11:07:25;12.23;;;6.00;;
18695;SDS011;22617;43.690;27.956;2024-01-27T11:12:31;13.77;;;6.00;;
18695;SDS011;22617;43.690;27.956;2024-01-27T11:17:39;13.73;;;5.70;;
18695;SDS011;22617;43.690;27.956;2024-01-27T11:22:44;13.23;;;6.63;;
18695;SDS011;22617;43.690;27.956;2024-01-27T11:27:48;21.27;;;5.97;;
18695;SDS011;22617;43.690;27.956;2024-01-27T11:32:54;11.87;;;6.37;;
18695;SDS011;22617;43.690;27.956;2024-01-27T11:37:59;13.87;;;6.03;;
18695;SDS011;22617;43.690;27.956;2024-01-27T11:43:03;17.87;;;6.07;;
18695;SDS011;22617;43.690;27.956;2024-01-27T11:48:10;17.97;;;5.60;;
18695;SDS011;22617;43.690;27.956;2024-01-27T11:53:14;10.87;;;5.70;;
18695;SDS011;22617;43.690;27.956;2024-01-27T11:58:18;11.87;;;5.90;;
18695;SDS011;22617;43.690;27.956;2024-01-27T12:03:23;16.60;;;6.20;;
18695;SDS011;22617;43.690;27.956;2024-01-27T12:08:26;15.37;;;6.57;;
18695;SDS011;22617;43.690;27.956;2024-01-27T12:13:30;17.37;;;6.77;;
18695;SDS011;22617;43.690;27.956;2024-01-27T12:18:35;14.20;;;6.20;;
18695;SDS011;22617;43.690;27.956;2024-01-27T12:23:51;14.77;;;6.13;;
18695;SDS011;22617;43.690;27.956;2024-01-27T12:28:55;13.70;;;7.40;;
18695;SDS011;22617;43.690;27.956;2024-01-27T12:34:01;13.83;;;6.87;;
18695;SDS011;22617;43.690;27.956;2024-01-27T12:39:04;17.20;;;8.47;;
18695;SDS011;22617;43.690;27.956;2024-01-27T12:44:08;17.20;;;8.10;;
18695;SDS011;22617;43.690;27.956;2024-01-27T12:49:13;19.33;;;9.10;;
18695;SDS011;22617;43.690;27.956;2024-01-27T12:54:17;18.47;;;8.47;;
18695;SDS011;22617;43.690;27.956;2024-01-27T12:59:21;17.30;;;8.80;;
18695;SDS011;22617;43.690;27.956;2024-01-27T13:04:26;16.80;;;7.93;;
18695;SDS011;22617;43.690;27.956;2024-01-27T13:09:30;16.43;;;9.03;;
18695;SDS011;22617;43.690;27.956;2024-01-27T13:14:33;16.17;;;8.10;;
18695;SDS011;22617;43.690;27.956;2024-01-27T13:19:39;16.60;;;8.33;;
18695;SDS011;22617;43.690;27.956;2024-01-27T13:24:43;16.07;;;7.57;;
18695;SDS011;22617;43.690;27.956;2024-01-27T13:29:46;13.93;;;7.13;;
18695;SDS011;22617;43.690;27.956;2024-01-27T13:34:51;13.83;;;7.20;;
18695;SDS011;22617;43.690;27.956;2024-01-27T13:39:56;15.00;;;7.97;;
18695;SDS011;22617;43.690;27.956;2024-01-27T13:45:00;15.50;;;7.93;;
18695;SDS011;22617;43.690;27.956;2024-01-27T13:50:07;15.97;;;8.40;;
18695;SDS011;22617;43.690;27.956;2024-01-27T13:55:12;17.50;;;7.50;;
18695;SDS011;22617;43.690;27.956;2024-01-27T14:00:16;18.93;;;8.87;;
18695;SDS011;22617;43.690;27.956;2024-01-27T14:05:21;15.23;;;8.00;;
18695;SDS011;22617;43.690;27.956;2024-01-27T14:10:26;21.37;;;9.50;;
18695;SDS011;22617;43.690;27.956;2024-01-27T14:15:31;20.40;;;8.73;;
18695;SDS011;22617;43.690;27.956;2024-01-27T14:20:36;15.67;;;7.80;;
18695;SDS011;22617;43.690;27.956;2024-01-27T14:25:40;16.90;;;7.97;;
18695;SDS011;22617;43.690;27.956;2024-01-27T14:30:47;17.30;;;8.47;;
18695;SDS011;22617;43.690;27.956;2024-01-27T14:35:52;15.73;;;9.27;;
18695;SDS011;22617;43.690;27.956;2024-01-27T14:40:56;16.90;;;8.47;;
18695;SDS011;22617;43.690;27.956;2024-01-27T14:45:59;18.90;;;9.60;;
18695;SDS011;22617;43.690;27.956;2024-01-27T14:51:05;23.37;;;9.83;;
18695;SDS011;22617;43.690;27.956;2024-01-27T14:56:09;18.17;;;8.47;;
18695;SDS011;22617;43.690;27.956;2024-01-27T15:01:13;16.90;;;8.93;;
18695;SDS011;22617;43.690;27.956;2024-01-27T15:06:18;16.80;;;8.20;;
18695;SDS011;22617;43.690;27.956;2024-01-27T15:11:22;19.23;;;9.53;;
18695;SDS011;22617;43.690;27.956;2024-01-27T15:16:27;15.33;;;8.40;;
18695;SDS011;22617;43.690;27.956;2024-01-27T15:21:35;17.47;;;8.70;;
18695;SDS011;22617;43.690;27.956;2024-01-27T15:26:38;17.50;;;7.90;;
18695;SDS011;22617;43.690;27.956;2024-01-27T15:31:42;19.07;;;8.40;;
18695;SDS011;22617;43.690;27.956;2024-01-27T15:36:47;16.43;;;8.67;;
18695;SDS011;22617;43.690;27.956;2024-01-27T15:41:50;18.40;;;8.63;;
18695;SDS011;22617;43.690;27.956;2024-01-27T15:46:54;17.33;;;8.57;;
18695;SDS011;22617;43.690;27.956;2024-01-27T15:51:59;19.70;;;8.87;;
18695;SDS011;22617;43.690;27.956;2024-01-27T15:57:05;20.73;;;8.73;;
18695;SDS011;22617;43.690;27.956;2024-01-27T16:02:08;18.07;;;9.40;;
18695;SDS011;22617;43.690;27.956;2024-01-27T16:07:13;15.77;;;8.63;;
18695;SDS011;22617;43.690;27.956;2024-01-27T16:12:17;21.17;;;8.73;;
18695;SDS011;22617;43.690;27.956;2024-01-27T16:17:20;17.10;;;8.63;;
18695;SDS011;22617;43.690;27.956;2024-01-27T16:22:25;16.20;;;8.53;;
18695;SDS011;22617;43.690;27.956;2024-01-27T16:27:29;16.60;;;8.37;;
18695;SDS011;22617;43.690;27.956;2024-01-27T16:32:34;23.43;;;9.37;;
18695;SDS011;22617;43.690;27.956;2024-01-27T16:37:39;22.57;;;10.10;;
18695;SDS011;22617;43.690;27.956;2024-01-27T16:42:43;20.10;;;9.30;;
18695;SDS011;22617;43.690;27.956;2024-01-27T16:47:47;26.13;;;10.83;;
18695;SDS011;22617;43.690;27.956;2024-01-27T16:52:52;19.83;;;9.80;;
18695;SDS011;22617;43.690;27.956;2024-01-27T16:57:56;23.03;;;10.97;;
18695;SDS011;22617;43.690;27.956;2024-01-27T17:03:00;25.70;;;13.30;;
18695;SDS011;22617;43.690;27.956;2024-01-27T17:08:06;30.93;;;13.20;;
18695;SDS011;22617;43.690;27.956;2024-01-27T17:13:13;29.20;;;13.80;;
18695;SDS011;22617;43.690;27.956;2024-01-27T17:18:17;34.17;;;13.80;;
18695;SDS011;22617;43.690;27.956;2024-01-27T17:23:23;31.90;;;13.90;;
18695;SDS011;22617;43.690;27.956;2024-01-27T17:28:32;27.33;;;12.33;;
18695;SDS011;22617;43.690;27.956;2024-01-27T17:33:37;23.87;;;10.70;;
18695;SDS011;22617;43.690;27.956;2024-01-27T17:38:44;25.50;;;9.80;;
18695;SDS011;22617;43.690;27.956;2024-01-27T17:43:48;22.43;;;9.27;;
18695;SDS011;22617;43.690;27.956;2024-01-27T17:48:51;17.93;;;8.73;;
18695;SDS011;22617;43.690;27.956;2024-01-27T17:53:56;22.13;;;9.27;;
18695;SDS011;22617;43.690;27.956;2024-01-27T17:59:02;19.17;;;8.20;;
18695;SDS011;22617;43.690;27.956;2024-01-27T18:04:05;16.13;;;7.57;;
18695;SDS011;22617;43.690;27.956;2024-01-27T18:09:11;19.13;;;8.30;;
18695;SDS011;22617;43.690;27.956;2024-01-27T18:14:14;22.50;;;8.93;;
18695;SDS011;22617;43.690;27.956;2024-01-27T18:19:18;18.20;;;7.97;;
18695;SDS011;22617;43.690;27.956;2024-01-27T18:24:25;14.53;;;7.53;;
18695;SDS011;22617;43.690;27.956;2024-01-27T18:29:29;15.70;;;7.33;;
18695;SDS011;22617;43.690;27.956;2024-01-27T18:34:33;17.83;;;7.13;;
18695;SDS011;22617;43.690;27.956;2024-01-27T18:39:39;16.37;;;7.17;;
18695;SDS011;22617;43.690;27.956;2024-01-27T18:44:43;16.67;;;7.53;;
18695;SDS011;22617;43.690;27.956;2024-01-27T18:49:46;14.30;;;6.87;;
18695;SDS011;22617;43.690;27.956;2024-01-27T18:54:57;20.47;;;7.40;;
18695;SDS011;22617;43.690;27.956;2024-01-27T19:00:00;12.83;;;6.00;;
18695;SDS011;22617;43.690;27.956;2024-01-27T19:05:06;15.97;;;6.67;;
18695;SDS011;22617;43.690;27.956;2024-01-27T19:10:12;13.53;;;6.50;;
18695;SDS011;22617;43.690;27.956;2024-01-27T19:15:16;14.20;;;6.37;;
18695;SDS011;22617;43.690;27.956;2024-01-27T19:20:19;14.40;;;5.93;;
18695;SDS011;22617;43.690;27.956;2024-01-27T19:25:25;12.43;;;5.27;;
18695;SDS011;22617;43.690;27.956;2024-01-27T19:30:29;9.43;;;5.33;;
18695;SDS011;22617;43.690;27.956;2024-01-27T19:35:33;11.10;;;5.63;;
18695;SDS011;22617;43.690;27.956;2024-01-27T19:40:38;12.50;;;5.20;;
18695;SDS011;22617;43.690;27.956;2024-01-27T19:45:42;10.43;;;5.43;;
18695;SDS011;22617;43.690;27.956;2024-01-27T19:50:48;10.50;;;4.97;;
18695;SDS011;22617;43.690;27.956;2024-01-27T19:55:53;12.50;;;5.87;;
18695;SDS011;22617;43.690;27.956;2024-01-27T20:00:57;12.00;;;5.73;;
18695;SDS011;22617;43.690;27.956;2024-01-27T20:06:00;16.90;;;5.60;;
18695;SDS011;22617;43.690;27.956;2024-01-27T20:11:07;11.20;;;4.93;;
18695;SDS011;22617;43.690;27.956;2024-01-27T20:16:13;8.73;;;4.87;;
18695;SDS011;22617;43.690;27.956;2024-01-27T20:21:16;9.37;;;5.37;;
18695;SDS011;22617;43.690;27.956;2024-01-27T20:26:21;11.83;;;5.60;;
18695;SDS011;22617;43.690;27.956;2024-01-27T20:31:24;12.43;;;5.73;;
18695;SDS011;22617;43.690;27.956;2024-01-27T20:36:30;10.43;;;5.47;;
18695;SDS011;22617;43.690;27.956;2024-01-27T20:41:35;11.03;;;5.70;;
18695;SDS011;22617;43.690;27.956;2024-01-27T20:46:39;18.53;;;6.67;;
18695;SDS011;22617;43.690;27.956;2024-01-27T20:51:43;13.93;;;6.17;;
18695;SDS011;22617;43.690;27.956;2024-01-27T20:56:51;16.20;;;7.10;;
18695;SDS011;22617;43.690;27.956;2024-01-27T21:01:56;12.73;;;6.40;;
18695;SDS011;22617;43.690;27.956;2024-01-27T21:07:03;13.30;;;6.33;;
18695;SDS011;22617;43.690;27.956;2024-01-27T21:12:09;13.83;;;6.30;;
18695;SDS011;22617;43.690;27.956;2024-01-27T21:17:12;12.70;;;6.60;;
18695;SDS011;22617;43.690;27.956;2024-01-27T21:22:16;14.80;;;6.50;;
18695;SDS011;22617;43.690;27.956;2024-01-27T21:27:21;12.37;;;6.10;;
18695;SDS011;22617;43.690;27.956;2024-01-27T21:32:24;12.53;;;5.73;;
18695;SDS011;22617;43.690;27.956;2024-01-27T21:37:28;12.13;;;4.93;;
18695;SDS011;22617;43.690;27.956;2024-01-27T21:42:33;12.63;;;5.53;;
18695;SDS011;22617;43.690;27.956;2024-01-27T21:47:36;11.50;;;5.77;;
18695;SDS011;22617;43.690;27.956;2024-01-27T21:52:40;12.80;;;6.23;;
18695;SDS011;22617;43.690;27.956;2024-01-27T21:57:45;13.00;;;6.53;;
18695;SDS011;22617;43.690;27.956;2024-01-27T22:02:48;15.17;;;6.43;;
18695;SDS011;22617;43.690;27.956;2024-01-27T22:07:54;13.57;;;6.60;;
18695;SDS011;22617;43.690;27.956;2024-01-27T22:13:01;12.87;;;6.07;;
18695;SDS011;22617;43.690;27.956;2024-01-27T22:18:05;12.37;;;6.50;;
18695;SDS011;22617;43.690;27.956;2024-01-27T22:23:08;11.93;;;6.10;;
18695;SDS011;22617;43.690;27.956;2024-01-27T22:28:13;13.87;;;6.23;;
18695;SDS011;22617;43.690;27.956;2024-01-27T22:33:17;14.80;;;6.97;;
18695;SDS011;22617;43.690;27.956;2024-01-27T22:38:22;17.10;;;7.60;;
18695;SDS011;22617;43.690;27.956;2024-01-27T22:43:27;18.13;;;7.83;;
18695;SDS011;22617;43.690;27.956;2024-01-27T22:48:31;19.90;;;9.27;;
18695;SDS011;22617;43.690;27.956;2024-01-27T22:53:34;22.57;;;10.13;;
18695;SDS011;22617;43.690;27.956;2024-01-27T22:58:39;21.80;;;10.83;;
18695;SDS011;22617;43.690;27.956;2024-01-27T23:03:43;22.57;;;10.67;;
18695;SDS011;22617;43.690;27.956;2024-01-27T23:08:47;23.80;;;10.33;;
18695;SDS011;22617;43.690;27.956;2024-01-27T23:13:52;18.20;;;9.43;;
18695;SDS011;22617;43.690;27.956;2024-01-27T23:18:55;17.03;;;8.70;;
18695;SDS011;22617;43.690;27.956;2024-01-27T23:23:58;17.47;;;8.30;;
18695;SDS011;22617;43.690;27.956;2024-01-27T23:29:04;16.73;;;7.93;;
18695;SDS011;22617;43.690;27.956;2024-01-27T23:34:07;16.03;;;7.93;;
18695;SDS011;22617;43.690;27.956;2024-01-27T23:39:12;14.73;;;6.97;;
18695;SDS011;22617;43.690;27.956;2024-01-27T23:44:17;15.97;;;7.40;;
18695;SDS011;22617;43.690;27.956;2024-01-27T23:49:21;13.33;;;7.33;;
18695;SDS011;22617;43.690;27.956;2024-01-27T23:54:24;15.93;;;7.77;;
18695;SDS011;22617;43.690;27.956;2024-01-27T23:59:29;17.07;;;7.57;;
